Time;durP1;ratioP1;P1;durP2;ratioP2;P2;SDS_P1;SDS_P2;PMS_P1;PMS_P2;Temp;Humidity;BMP_temperature;BMP_pressure;BME280_temperature;BME280_humidity;BME280_pressure;Samples;Min_cycle;Max_cycle;Signal;HPM_P1;HPM_P2
2022/03/13 00:02:08;;;;;;;;;;;7.00;99.90;;;;;;5062625;28;21234;-73
2022/03/13 00:04:35;;;;;;;;;;;7.00;99.90;;;;;;5068036;28;20264;-73
2022/03/13 00:07:06;;;;;;;;;;;7.00;99.90;;;;;;5072767;28;19928;-74
2022/03/13 00:09:31;;;;;;;;;;;6.90;99.90;;;;;;5072592;28;19924;-73
2022/03/13 00:11:57;;;;;;;;;;;6.90;99.90;;;;;;5073740;28;20340;-73
2022/03/13 00:14:25;;;;;;;;;;;6.90;99.90;;;;;;5070759;28;19928;-73
2022/03/13 00:16:52;;;;;;;;;;;6.90;99.90;;;;;;5072176;28;20275;-73
2022/03/13 00:19:20;;;;;;;;;;;6.90;99.90;;;;;;5071415;28;19978;-73
2022/03/13 00:21:52;;;;;;;;;;;6.80;99.90;;;;;;5075704;28;19986;-73
2022/03/13 00:24:22;;;;;;;;;;;6.80;99.90;;;;;;5072575;28;19920;-73
2022/03/13 00:26:48;;;;;;;;;;;6.80;99.90;;;;;;5072297;28;20386;-74
2022/03/13 00:29:14;;;;;;;;;;;6.80;99.90;;;;;;5054546;28;19921;-73
2022/03/13 00:31:39;;;;;;;;;;;6.70;99.90;;;;;;5052611;28;19920;-74
2022/03/13 00:34:05;;;;;;;;;;;6.70;99.90;;;;;;5067297;28;19921;-74
2022/03/13 00:36:30;;;;;;;;;;;6.70;99.90;;;;;;5073376;28;19978;-74
2022/03/13 00:38:56;;;;;;;;;;;6.70;99.90;;;;;;5068054;28;19940;-74
2022/03/13 00:41:21;;;;;;;;;;;6.70;99.90;;;;;;5070099;28;19928;-75
2022/03/13 00:43:47;;;;;;;;;;;6.70;99.90;;;;;;5071144;28;20283;-76
2022/03/13 00:46:12;;;;;;;;;;;6.70;99.90;;;;;;5055341;28;19974;-75
2022/03/13 00:48:38;;;;;;;;;;;6.70;99.90;;;;;;5071949;28;20007;-75
2022/03/13 00:51:03;;;;;;;;;;;6.70;99.90;;;;;;5070401;28;19969;-74
2022/03/13 00:53:29;;;;;;;;;;;6.70;99.90;;;;;;5069012;28;20282;-74
2022/03/13 00:55:54;;;;;;;;;;;6.70;99.90;;;;;;5072479;28;19924;-74
2022/03/13 00:58:20;;;;;;;;;;;6.70;99.90;;;;;;5071882;28;19922;-74
2022/03/13 01:00:45;;;;;;;;;;;6.70;99.90;;;;;;5071131;28;20002;-74
2022/03/13 01:03:28;;;;;;;;;;;6.70;99.90;;;;;;5069847;28;19959;-74
2022/03/13 01:05:53;;;;;;;;;;;6.80;99.90;;;;;;5068747;28;20276;-73
2022/03/13 01:08:19;;;;;;;;;;;6.80;99.90;;;;;;5049776;28;19931;-73
2022/03/13 01:10:44;;;;;;;;;;;7.00;99.90;;;;;;5071119;28;20221;-74
2022/03/13 01:13:10;;;;;;;;;;;7.00;99.90;;;;;;5036314;28;19920;-74
2022/03/13 01:15:38;;;;;;;;;;;7.10;99.90;;;;;;5068082;28;20259;-74
2022/03/13 01:18:03;;;;;;;;;;;7.20;99.90;;;;;;5071014;28;19920;-75
2022/03/13 01:20:29;;;;;;;;;;;7.30;99.90;;;;;;5069255;28;19920;-73
2022/03/13 01:22:54;;;;;;;;;;;7.40;99.90;;;;;;5071691;28;20023;-74
2022/03/13 01:25:20;;;;;;;;;;;7.60;99.90;;;;;;5068934;28;19921;-74
2022/03/13 01:27:46;;;;;;;;;;;7.80;99.90;;;;;;5070318;28;20360;-74
2022/03/13 01:30:14;;;;;;;;;;;7.90;99.90;;;;;;5071424;28;19929;-74
2022/03/13 01:32:39;;;;;;;;;;;8.00;99.90;;;;;;5069277;28;19920;-74
2022/03/13 01:35:05;;;;;;;;;;;8.10;99.90;;;;;;5068959;28;19965;-71
2022/03/13 01:37:33;;;;;;;;;;;8.00;99.90;;;;;;5071580;28;19928;-71
2022/03/13 01:40:00;;;;;;;;;;;8.00;99.90;;;;;;5071607;28;19966;-71
2022/03/13 01:42:26;;;;;;;;;;;8.10;99.90;;;;;;5067904;28;20016;-71
2022/03/13 01:44:51;;;;;;;;;;;8.20;99.90;;;;;;5070180;28;20022;-71
2022/03/13 01:47:17;;;;;;;;;;;8.20;99.90;;;;;;5071763;28;19927;-71
2022/03/13 01:49:42;;;;;;;;;;;8.00;99.90;;;;;;5069821;28;19966;-72
2022/03/13 01:52:08;;;;;;;;;;;7.80;99.90;;;;;;5071125;28;20244;-71
2022/03/13 01:54:34;;;;;;;;;;;7.70;99.90;;;;;;5066052;28;20059;-71
2022/03/13 01:57:00;;;;;;;;;;;7.70;99.90;;;;;;5070252;28;19920;-71
2022/03/13 01:59:26;;;;;;;;;;;7.60;99.90;;;;;;5069743;28;20334;-71
2022/03/13 02:01:52;;;;;;;;;;;7.50;99.90;;;;;;5071001;28;19924;-70
2022/03/13 02:04:23;;;;;;;;;;;7.40;99.90;;;;;;5051452;28;19935;-71
2022/03/13 02:06:50;;;;;;;;;;;7.40;99.90;;;;;;5067949;28;19921;-71
2022/03/13 02:09:16;;;;;;;;;;;7.30;99.90;;;;;;5033065;28;19920;-70
2022/03/13 02:11:42;;;;;;;;;;;7.20;99.90;;;;;;5070030;28;20387;-72
2022/03/13 02:14:11;;;;;;;;;;;7.20;99.90;;;;;;5069570;28;19921;-71
2022/03/13 02:16:38;;;;;;;;;;;7.10;99.90;;;;;;5033787;28;20034;-71
2022/03/13 02:19:04;;;;;;;;;;;7.00;99.90;;;;;;5051189;28;20367;-71
2022/03/13 02:21:31;;;;;;;;;;;7.00;99.90;;;;;;5065630;28;19997;-71
2022/03/13 02:24:00;;;;;;;;;;;6.90;99.90;;;;;;5066763;28;19977;-71
2022/03/13 02:26:26;;;;;;;;;;;6.90;99.90;;;;;;5067365;28;20339;-70
2022/03/13 02:28:52;;;;;;;;;;;6.80;99.90;;;;;;5065968;28;19935;-71
2022/03/13 02:31:23;;;;;;;;;;;6.80;99.90;;;;;;5051104;28;19935;-71
2022/03/13 02:33:51;;;;;;;;;;;6.80;99.90;;;;;;5068801;28;19968;-71
2022/03/13 02:36:34;;;;;;;;;;;6.70;99.90;;;;;;5068356;28;20298;-71
2022/03/13 02:38:59;;;;;;;;;;;6.70;99.90;;;;;;5067000;28;20267;-69
2022/03/13 02:41:26;;;;;;;;;;;6.70;99.90;;;;;;5070350;28;19920;-70
2022/03/13 02:43:55;;;;;;;;;;;6.70;99.90;;;;;;5050474;28;19920;-72
2022/03/13 02:46:21;;;;;;;;;;;6.60;99.90;;;;;;5054085;28;19920;-72
2022/03/13 02:48:47;;;;;;;;;;;6.60;99.90;;;;;;5052365;28;19928;-72
2022/03/13 02:51:13;;;;;;;;;;;6.60;99.90;;;;;;5097360;22;19943;-56
2022/03/13 02:53:39;;;;;;;;;;;6.50;99.90;;;;;;5054946;28;20363;-56
2022/03/13 02:56:05;;;;;;;;;;;6.50;99.90;;;;;;5050198;28;19928;-56
2022/03/13 02:58:31;;;;;;;;;;;6.50;99.90;;;;;;5049221;28;19921;-56
2022/03/13 03:00:57;;;;;;;;;;;6.50;99.90;;;;;;5049953;28;20333;-56
2022/03/13 03:03:23;;;;;;;;;;;6.50;99.90;;;;;;5050979;28;19920;-56
2022/03/13 03:05:50;;;;;;;;;;;6.50;99.90;;;;;;5047999;28;19920;-56
2022/03/13 03:08:16;;;;;;;;;;;6.50;99.90;;;;;;5047848;28;20023;-56
2022/03/13 03:10:41;;;;;;;;;;;6.40;99.90;;;;;;5041165;28;19925;-57
2022/03/13 03:13:11;;;;;;;;;;;6.40;99.90;;;;;;5049657;28;19920;-56
2022/03/13 03:15:37;;;;;;;;;;;6.40;99.90;;;;;;5049831;28;20015;-55
2022/03/13 03:18:03;;;;;;;;;;;6.40;99.90;;;;;;5047582;28;19966;-56
2022/03/13 03:20:28;;;;;;;;;;;6.30;99.90;;;;;;5045003;28;19920;-53
2022/03/13 03:22:54;;;;;;;;;;;6.20;99.90;;;;;;5049471;28;20240;-56
2022/03/13 03:25:24;;;;;;;;;;;6.20;99.90;;;;;;5048710;28;20220;-56
2022/03/13 03:27:53;;;;;;;;;;;6.10;99.90;;;;;;5047143;28;19967;-54
2022/03/13 03:30:19;;;;;;;;;;;6.10;99.90;;;;;;5049904;28;19920;-56
2022/03/13 03:32:45;;;;;;;;;;;6.10;99.90;;;;;;5049037;28;19948;-55
2022/03/13 03:35:10;;;;;;;;;;;6.00;99.90;;;;;;5049344;28;19928;-55
2022/03/13 03:37:36;;;;;;;;;;;6.00;99.90;;;;;;5050409;28;20375;-55
2022/03/13 03:40:02;;;;;;;;;;;5.90;99.90;;;;;;5049275;28;19920;-56
2022/03/13 03:42:27;;;;;;;;;;;5.90;99.90;;;;;;5053217;28;19925;-55
2022/03/13 03:44:53;;;;;;;;;;;5.90;99.90;;;;;;5051118;28;19948;-54
2022/03/13 03:47:19;;;;;;;;;;;5.80;99.90;;;;;;5054313;28;19920;-55
2022/03/13 03:49:44;;;;;;;;;;;5.80;99.90;;;;;;5054090;28;20046;-54
2022/03/13 03:52:10;;;;;;;;;;;5.70;99.90;;;;;;5052475;28;20398;-56
2022/03/13 03:54:35;;;;;;;;;;;5.70;99.90;;;;;;5051658;28;19943;-55
2022/03/13 03:57:01;;;;;;;;;;;5.60;99.90;;;;;;5051915;28;19974;-56
2022/03/13 03:59:26;;;;;;;;;;;5.50;99.90;;;;;;5050076;28;19927;-57
2022/03/13 04:01:51;;;;;;;;;;;5.50;99.90;;;;;;5053157;28;19998;-55
2022/03/13 04:04:17;;;;;;;;;;;5.50;99.90;;;;;;5051674;28;19927;-55
2022/03/13 04:06:43;;;;;;;;;;;5.40;99.90;;;;;;5051464;28;20371;-56
2022/03/13 04:09:10;;;;;;;;;;;5.40;99.90;;;;;;5048994;28;19920;-56
2022/03/13 04:11:36;;;;;;;;;;;5.30;99.90;;;;;;5049828;28;19921;-56
2022/03/13 04:14:02;;;;;;;;;;;5.30;99.90;;;;;;5051476;28;19939;-55
2022/03/13 04:16:27;;;;;;;;;;;5.20;99.90;;;;;;5052667;28;20015;-56
2022/03/13 04:18:54;;;;;;;;;;;5.20;99.90;;;;;;5053839;28;19920;-56
2022/03/13 04:21:20;;;;;;;;;;;5.10;99.90;;;;;;5050578;28;19927;-57
2022/03/13 04:23:45;;;;;;;;;;;5.10;99.90;;;;;;5051159;28;20023;-56
2022/03/13 04:26:11;;;;;;;;;;;5.10;99.90;;;;;;5050592;28;20023;-56
2022/03/13 04:28:36;;;;;;;;;;;5.00;99.90;;;;;;5051351;28;20396;-55
2022/03/13 04:31:05;;;;;;;;;;;5.00;99.90;;;;;;5052538;28;19921;-56
2022/03/13 04:33:33;;;;;;;;;;;5.00;99.90;;;;;;5048309;28;19921;-56
2022/03/13 04:36:00;;;;;;;;;;;4.90;99.90;;;;;;5050635;28;20540;-56
2022/03/13 04:38:26;;;;;;;;;;;4.90;99.90;;;;;;5048424;28;19921;-54
2022/03/13 04:40:52;;;;;;;;;;;4.90;99.90;;;;;;5037578;28;19925;-56
2022/03/13 04:43:18;;;;;;;;;;;4.80;99.90;;;;;;5052144;28;20267;-56
2022/03/13 04:45:44;;;;;;;;;;;4.80;99.90;;;;;;5052604;28;19925;-56
2022/03/13 04:48:09;;;;;;;;;;;4.80;99.90;;;;;;5053113;28;19921;-56
2022/03/13 04:50:35;;;;;;;;;;;4.70;99.90;;;;;;5035967;28;19966;-56
2022/03/13 04:53:00;;;;;;;;;;;4.70;99.90;;;;;;5053227;28;19924;-55
2022/03/13 04:55:25;;;;;;;;;;;4.70;99.90;;;;;;5049699;28;20337;-57
2022/03/13 04:57:51;;;;;;;;;;;4.60;99.90;;;;;;5049279;28;19920;-55
2022/03/13 05:00:17;;;;;;;;;;;4.60;99.90;;;;;;5045625;28;19998;-56
2022/03/13 05:02:43;;;;;;;;;;;4.60;99.90;;;;;;5032898;28;20347;-56
2022/03/13 05:05:08;;;;;;;;;;;4.60;99.90;;;;;;5047478;28;20268;-55
2022/03/13 05:07:38;;;;;;;;;;;4.60;99.90;;;;;;5049089;28;20675;-56
2022/03/13 05:10:05;;;;;;;;;;;4.60;99.90;;;;;;5035945;28;19927;-56
2022/03/13 05:12:30;;;;;;;;;;;4.60;99.90;;;;;;5049781;28;20402;-57
2022/03/13 05:14:56;;;;;;;;;;;4.50;99.90;;;;;;5032590;28;19966;-56
2022/03/13 05:17:22;;;;;;;;;;;4.50;99.90;;;;;;5051590;28;19966;-55
2022/03/13 05:19:48;;;;;;;;;;;4.50;99.90;;;;;;5052607;28;20302;-56
2022/03/13 05:22:14;;;;;;;;;;;4.50;99.90;;;;;;5052093;28;19955;-56
2022/03/13 05:24:39;;;;;;;;;;;4.50;99.90;;;;;;5052593;28;19975;-56
2022/03/13 05:27:05;;;;;;;;;;;4.50;99.90;;;;;;5053044;28;19971;-55
2022/03/13 05:29:30;;;;;;;;;;;4.40;99.90;;;;;;5051928;28;20337;-57
2022/03/13 05:31:56;;;;;;;;;;;4.50;99.90;;;;;;5052949;28;19967;-55
2022/03/13 05:34:21;;;;;;;;;;;4.40;99.90;;;;;;5051516;28;19928;-55
2022/03/13 05:36:47;;;;;;;;;;;4.50;99.90;;;;;;5054443;28;20269;-53
2022/03/13 05:39:12;;;;;;;;;;;4.50;99.90;;;;;;5052156;28;19932;-56
2022/03/13 05:41:40;;;;;;;;;;;4.50;99.90;;;;;;5052362;28;19974;-56
2022/03/13 05:44:09;;;;;;;;;;;4.50;99.90;;;;;;5051118;28;20284;-55
2022/03/13 05:46:38;;;;;;;;;;;4.60;99.90;;;;;;5049947;28;20386;-55
2022/03/13 05:49:04;;;;;;;;;;;4.60;99.90;;;;;;5045254;28;19984;-57
2022/03/13 05:51:35;;;;;;;;;;;4.70;99.90;;;;;;5050139;28;19921;-54
2022/03/13 05:54:01;;;;;;;;;;;4.70;99.90;;;;;;5052681;28;20258;-56
2022/03/13 05:56:26;;;;;;;;;;;4.70;99.90;;;;;;5052053;28;19920;-57
2022/03/13 05:58:52;;;;;;;;;;;4.80;99.90;;;;;;5051904;28;19921;-57
2022/03/13 06:01:17;;;;;;;;;;;4.80;99.90;;;;;;5045730;28;19967;-56
2022/03/13 06:03:43;;;;;;;;;;;4.80;99.90;;;;;;5051228;28;20286;-56
2022/03/13 06:06:08;;;;;;;;;;;4.80;99.90;;;;;;5055164;28;19921;-57
2022/03/13 06:08:34;;;;;;;;;;;4.80;99.90;;;;;;5050813;28;20226;-55
2022/03/13 06:10:59;;;;;;;;;;;4.90;99.90;;;;;;5049472;28;19921;-55
2022/03/13 06:13:25;;;;;;;;;;;5.00;99.90;;;;;;5046965;28;19925;-57
2022/03/13 06:15:50;;;;;;;;;;;5.00;99.90;;;;;;5050970;28;19999;-56
2022/03/13 06:18:16;;;;;;;;;;;5.10;99.90;;;;;;5051678;28;19971;-56
2022/03/13 06:20:42;;;;;;;;;;;5.20;99.90;;;;;;5051004;28;19920;-56
2022/03/13 06:23:08;;;;;;;;;;;5.20;99.90;;;;;;5050369;28;19975;-56
2022/03/13 06:25:34;;;;;;;;;;;5.20;99.90;;;;;;5050232;28;19921;-56
2022/03/13 06:27:59;;;;;;;;;;;5.30;99.90;;;;;;5031259;28;19973;-56
2022/03/13 06:30:25;;;;;;;;;;;5.40;99.90;;;;;;5050870;28;19928;-56
2022/03/13 06:32:53;;;;;;;;;;;5.40;99.90;;;;;;5035702;28;19927;-56
2022/03/13 06:35:22;;;;;;;;;;;5.50;99.90;;;;;;5049872;28;20202;-56
2022/03/13 06:37:49;;;;;;;;;;;5.50;99.90;;;;;;5050700;28;19925;-56
2022/03/13 06:40:19;;;;;;;;;;;5.60;99.90;;;;;;5047986;28;19925;-56
2022/03/13 06:42:45;;;;;;;;;;;5.60;99.90;;;;;;5046633;28;19932;-57
2022/03/13 06:45:10;;;;;;;;;;;5.70;99.90;;;;;;5047688;28;19920;-57
2022/03/13 06:47:37;;;;;;;;;;;5.80;99.90;;;;;;5048599;28;19947;-54
2022/03/13 06:50:02;;;;;;;;;;;5.90;99.90;;;;;;5051278;28;20010;-55
2022/03/13 06:52:28;;;;;;;;;;;6.10;99.90;;;;;;5032487;28;19920;-56
2022/03/13 06:54:53;;;;;;;;;;;6.30;99.90;;;;;;5049880;28;19928;-56
2022/03/13 06:57:19;;;;;;;;;;;7.00;99.90;;;;;;5049219;28;19936;-57
2022/03/13 06:59:44;;;;;;;;;;;7.40;99.90;;;;;;5048851;28;20004;-57
2022/03/13 07:02:11;;;;;;;;;;;7.70;99.90;;;;;;5047881;28;19928;-56
2022/03/13 07:04:36;;;;;;;;;;;7.80;99.90;;;;;;5046824;28;19925;-56
2022/03/13 07:07:02;;;;;;;;;;;7.70;99.90;;;;;;5048217;28;20011;-57
2022/03/13 07:09:28;;;;;;;;;;;7.60;99.90;;;;;;5049153;28;20087;-55
2022/03/13 07:11:53;;;;;;;;;;;7.50;99.90;;;;;;5051055;28;19921;-56
2022/03/13 07:14:21;;;;;;;;;;;7.50;99.90;;;;;;5046599;28;19925;-56
2022/03/13 07:16:47;;;;;;;;;;;7.40;99.90;;;;;;5047924;28;19927;-56
2022/03/13 07:19:12;;;;;;;;;;;7.40;99.90;;;;;;5047843;28;19928;-56
2022/03/13 07:21:38;;;;;;;;;;;7.40;99.90;;;;;;5042212;28;20414;-56
2022/03/13 07:24:04;;;;;;;;;;;7.30;99.90;;;;;;5046798;28;19921;-57
2022/03/13 07:26:29;;;;;;;;;;;7.30;99.90;;;;;;5050646;28;19921;-54
2022/03/13 07:28:55;;;;;;;;;;;7.30;99.90;;;;;;5049389;28;19921;-54
2022/03/13 07:31:20;;;;;;;;;;;7.40;99.90;;;;;;5031899;28;19924;-57
2022/03/13 07:33:46;;;;;;;;;;;7.50;99.90;;;;;;5046574;28;20458;-56
2022/03/13 07:36:11;;;;;;;;;;;7.70;99.90;;;;;;5046932;28;19966;-57
2022/03/13 07:38:37;;;;;;;;;;;7.90;99.90;;;;;;5049932;28;20199;-56
2022/03/13 07:41:03;;;;;;;;;;;7.90;99.90;;;;;;5047834;28;19932;-56
2022/03/13 07:43:29;;;;;;;;;;;8.00;99.90;;;;;;5045244;28;19925;-56
2022/03/13 07:45:55;;;;;;;;;;;8.10;99.90;;;;;;5048238;28;19929;-56
2022/03/13 07:48:20;;;;;;;;;;;8.30;99.90;;;;;;5048563;28;19932;-55
2022/03/13 07:50:46;;;;;;;;;;;8.50;99.90;;;;;;5047517;28;19921;-57
2022/03/13 07:53:11;;;;;;;;;;;8.60;99.90;;;;;;5049349;28;19932;-56
2022/03/13 07:55:36;;;;;;;;;;;8.70;99.80;;;;;;5049010;28;20011;-56
2022/03/13 07:58:02;;;;;;;;;;;9.00;99.90;;;;;;5048030;28;19980;-56
2022/03/13 08:00:27;;;;;;;;;;;9.10;99.90;;;;;;5046471;28;19932;-56
2022/03/13 08:02:54;;;;;;;;;;;9.00;95.60;;;;;;5049030;28;19947;-55
2022/03/13 08:05:21;;;;;;;;;;;8.90;94.80;;;;;;5048890;28;19924;-57
2022/03/13 08:07:47;;;;;;;;;;;8.80;95.80;;;;;;5035309;28;19928;-54
2022/03/13 08:10:13;;;;;;;;;;;8.90;96.90;;;;;;5048829;28;19925;-56
2022/03/13 08:12:39;;;;;;;;;;;8.80;95.40;;;;;;5049970;28;19924;-56
2022/03/13 08:15:06;;;;;;;;;;;8.70;95.70;;;;;;5050302;28;19925;-56
2022/03/13 08:17:32;;;;;;;;;;;8.70;95.50;;;;;;5048490;28;20366;-56
2022/03/13 08:19:59;;;;;;;;;;;8.70;95.70;;;;;;5049912;28;19967;-55
2022/03/13 08:22:25;;;;;;;;;;;8.80;96.90;;;;;;5022401;28;19921;-56
2022/03/13 08:24:51;;;;;;;;;;;8.70;95.30;;;;;;5046085;28;19940;-56
2022/03/13 08:27:16;;;;;;;;;;;8.70;95.60;;;;;;5049678;28;19979;-56
2022/03/13 08:29:42;;;;;;;;;;;8.80;95.30;;;;;;5033415;28;19982;-56
2022/03/13 08:32:08;;;;;;;;;;;8.90;93.20;;;;;;5049725;28;19928;-57
2022/03/13 08:34:34;;;;;;;;;;;9.10;94.30;;;;;;5051467;28;19920;-56
2022/03/13 08:36:59;;;;;;;;;;;9.20;92.60;;;;;;5052151;28;19972;-57
2022/03/13 08:39:25;;;;;;;;;;;9.30;91.80;;;;;;5049811;28;19971;-57
2022/03/13 08:41:50;;;;;;;;;;;9.40;92.40;;;;;;5051455;28;19921;-56
2022/03/13 08:44:16;;;;;;;;;;;9.50;90.60;;;;;;5052535;28;19932;-57
2022/03/13 08:46:41;;;;;;;;;;;9.70;91.50;;;;;;5053219;28;19986;-57
2022/03/13 08:49:07;;;;;;;;;;;9.80;89.00;;;;;;5030832;28;20400;-56
2022/03/13 08:51:33;;;;;;;;;;;9.90;89.50;;;;;;5053225;28;19978;-56
2022/03/13 08:53:58;;;;;;;;;;;9.90;85.70;;;;;;5051508;28;19924;-57
2022/03/13 08:56:24;;;;;;;;;;;10.00;85.10;;;;;;5051099;28;20401;-58
2022/03/13 08:58:50;;;;;;;;;;;10.30;87.10;;;;;;5046224;28;19927;-56
2022/03/13 09:01:16;;;;;;;;;;;10.40;83.70;;;;;;5051186;28;19927;-56
2022/03/13 09:03:41;;;;;;;;;;;10.50;84.70;;;;;;5050431;28;19920;-57
2022/03/13 09:06:07;;;;;;;;;;;10.50;78.70;;;;;;5052615;28;19920;-57
2022/03/13 09:08:32;;;;;;;;;;;10.60;77.30;;;;;;5051237;28;19927;-56
2022/03/13 09:10:58;;;;;;;;;;;10.60;78.20;;;;;;5051161;28;19925;-57
2022/03/13 09:13:23;;;;;;;;;;;10.70;79.20;;;;;;5046653;28;20312;-57
2022/03/13 09:15:49;;;;;;;;;;;10.60;77.20;;;;;;5041769;28;19921;-57
2022/03/13 09:18:15;;;;;;;;;;;10.70;76.80;;;;;;5049581;28;19928;-57
2022/03/13 09:20:41;;;;;;;;;;;10.70;75.70;;;;;;5051644;28;19930;-56
2022/03/13 09:23:07;;;;;;;;;;;10.90;76.60;;;;;;5050276;28;20382;-56
2022/03/13 09:25:34;;;;;;;;;;;11.00;75.10;;;;;;5050469;28;19927;-57
2022/03/13 09:28:00;;;;;;;;;;;11.20;75.80;;;;;;5050229;28;19933;-57
2022/03/13 09:30:26;;;;;;;;;;;11.20;73.00;;;;;;5051549;28;19924;-57
2022/03/13 09:32:51;;;;;;;;;;;11.30;72.80;;;;;;5050722;28;20031;-57
2022/03/13 09:35:17;;;;;;;;;;;11.40;72.00;;;;;;5052406;28;19928;-58
2022/03/13 09:37:43;;;;;;;;;;;11.40;72.40;;;;;;5049600;28;19924;-57
2022/03/13 09:40:09;;;;;;;;;;;11.50;72.20;;;;;;5049441;28;19999;-56
2022/03/13 09:42:35;;;;;;;;;;;11.70;72.00;;;;;;5051401;28;20374;-58
2022/03/13 09:45:01;;;;;;;;;;;11.80;71.30;;;;;;5051953;28;19967;-57
2022/03/13 09:47:27;;;;;;;;;;;12.00;72.80;;;;;;5050614;28;20003;-57
2022/03/13 09:49:53;;;;;;;;;;;12.10;70.30;;;;;;5048165;28;19928;-57
2022/03/13 09:52:19;;;;;;;;;;;12.30;70.80;;;;;;5051803;28;20342;-58
2022/03/13 09:54:44;;;;;;;;;;;12.40;69.60;;;;;;5048606;28;19925;-57
2022/03/13 09:57:10;;;;;;;;;;;12.40;68.80;;;;;;5050102;28;19975;-58
2022/03/13 09:59:35;;;;;;;;;;;12.20;67.00;;;;;;5051316;28;19926;-57
2022/03/13 10:02:05;;;;;;;;;;;12.20;67.40;;;;;;5050925;28;19927;-57
2022/03/13 10:04:31;;;;;;;;;;;12.20;68.90;;;;;;5049536;28;19921;-58
2022/03/13 10:07:00;;;;;;;;;;;12.00;67.00;;;;;;5050155;28;19967;-58
2022/03/13 10:09:26;;;;;;;;;;;12.00;66.90;;;;;;5051593;28;20039;-58
2022/03/13 10:12:02;;;;;;;;;;;12.20;68.00;;;;;;5040207;28;19928;-57
2022/03/13 10:14:27;;;;;;;;;;;12.40;68.80;;;;;;5048835;28;19920;-58
2022/03/13 10:16:53;;;;;;;;;;;12.50;65.40;;;;;;5042877;28;19975;-57
2022/03/13 10:19:19;;;;;;;;;;;12.60;63.70;;;;;;5049151;28;19928;-56
2022/03/13 10:22:01;;;;;;;;;;;12.80;64.80;;;;;;5051918;28;20065;-55
2022/03/13 10:24:27;;;;;;;;;;;12.90;63.80;;;;;;5043034;28;20401;-57
2022/03/13 10:27:09;;;;;;;;;;;12.90;61.30;;;;;;5039876;28;20653;-57
2022/03/13 10:29:35;;;;;;;;;;;13.10;62.50;;;;;;5040657;28;19955;-58
2022/03/13 10:32:00;;;;;;;;;;;13.20;62.10;;;;;;5041126;28;20210;-57
2022/03/13 10:34:26;;;;;;;;;;;13.20;61.20;;;;;;5043467;28;19920;-57
2022/03/13 10:36:52;;;;;;;;;;;13.30;61.50;;;;;;5042390;28;19921;-57
2022/03/13 10:39:18;;;;;;;;;;;13.20;60.30;;;;;;5041523;28;20000;-57
2022/03/13 10:41:47;;;;;;;;;;;13.20;60.40;;;;;;5042855;28;19951;-57
2022/03/13 10:44:17;;;;;;;;;;;13.30;61.60;;;;;;5045558;28;20342;-57
2022/03/13 10:46:42;;;;;;;;;;;13.40;60.30;;;;;;5031339;28;19921;-58
2022/03/13 10:49:09;;;;;;;;;;;13.40;58.00;;;;;;5043571;28;20234;-57
2022/03/13 10:51:45;;;;;;;;;;;13.30;57.90;;;;;;5046401;28;19932;-57
2022/03/13 10:54:31;;;;;;;;;;;13.30;58.40;;;;;;5054974;28;19924;-58
2022/03/13 10:57:10;;;;;;;;;;;13.50;59.60;;;;;;5051471;28;19920;-58
2022/03/13 10:59:36;;;;;;;;;;;13.60;58.60;;;;;;5051498;28;20452;-57
2022/03/13 11:02:13;;;;;;;;;;;13.80;60.30;;;;;;5051552;28;19925;-57
2022/03/13 11:04:52;;;;;;;;;;;13.90;56.70;;;;;;5052035;28;19929;-57
2022/03/13 11:07:18;;;;;;;;;;;14.00;57.70;;;;;;5050322;28;20007;-57
2022/03/13 11:09:43;;;;;;;;;;;14.10;57.20;;;;;;5054084;28;19921;-58
2022/03/13 11:12:12;;;;;;;;;;;14.10;56.80;;;;;;5046865;28;20015;-58
2022/03/13 11:14:38;;;;;;;;;;;14.20;55.90;;;;;;5047637;28;20354;-58
2022/03/13 11:17:04;;;;;;;;;;;14.10;55.80;;;;;;5048081;28;19964;-57
2022/03/13 11:19:30;;;;;;;;;;;14.10;55.30;;;;;;5039308;28;19925;-57
2022/03/13 11:21:55;;;;;;;;;;;14.20;55.80;;;;;;5048589;28;19921;-57
2022/03/13 11:24:23;;;;;;;;;;;14.40;55.30;;;;;;5048765;28;19975;-57
2022/03/13 11:26:50;;;;;;;;;;;14.50;55.60;;;;;;5048014;28;19928;-57
2022/03/13 11:29:35;;;;;;;;;;;14.60;54.50;;;;;;5050153;28;20346;-58
2022/03/13 11:32:01;;;;;;;;;;;14.80;54.80;;;;;;5033500;28;19927;-57
2022/03/13 11:34:26;;;;;;;;;;;14.90;54.50;;;;;;5051586;28;20395;-58
2022/03/13 11:36:52;;;;;;;;;;;15.00;53.90;;;;;;5051951;28;20015;-58
2022/03/13 11:39:25;;;;;;;;;;;15.20;54.70;;;;;;5051177;28;20287;-57
2022/03/13 11:41:50;;;;;;;;;;;15.40;52.90;;;;;;5047689;28;20461;-58
2022/03/13 11:44:16;;;;;;;;;;;15.40;53.00;;;;;;5046446;28;20086;-58
2022/03/13 11:46:44;;;;;;;;;;;15.50;52.30;;;;;;5049542;28;19925;-57
2022/03/13 11:49:33;;;;;;;;;;;15.50;51.50;;;;;;5049839;28;19921;-58
2022/03/13 11:52:08;;;;;;;;;;;15.60;51.90;;;;;;5046207;28;19920;-58
2022/03/13 11:54:49;;;;;;;;;;;15.70;52.50;;;;;;5041105;28;19920;-58
2022/03/13 11:57:19;;;;;;;;;;;15.80;52.80;;;;;;5045939;28;20401;-56
2022/03/13 11:59:49;;;;;;;;;;;15.80;51.40;;;;;;5051173;28;19932;-58
2022/03/13 12:02:33;;;;;;;;;;;15.70;51.60;;;;;;5049848;28;19921;-58
2022/03/13 12:05:17;;;;;;;;;;;15.60;50.70;;;;;;5042985;28;19974;-57
2022/03/13 12:07:52;;;;;;;;;;;15.70;52.00;;;;;;5029765;28;19925;-57
2022/03/13 12:10:30;;;;;;;;;;;15.70;50.70;;;;;;5054304;28;20011;-58
2022/03/13 12:13:05;;;;;;;;;;;15.70;50.30;;;;;;5031242;28;20010;-57
2022/03/13 12:15:31;;;;;;;;;;;15.90;52.00;;;;;;5049569;28;19928;-58
2022/03/13 12:17:57;;;;;;;;;;;15.70;51.00;;;;;;5053488;28;19921;-57
2022/03/13 12:20:24;;;;;;;;;;;15.70;51.70;;;;;;5054795;28;19921;-56
2022/03/13 12:22:53;;;;;;;;;;;15.90;52.10;;;;;;5053436;28;19921;-58
2022/03/13 12:25:25;;;;;;;;;;;15.90;51.90;;;;;;5053780;28;19921;-58
2022/03/13 12:27:51;;;;;;;;;;;15.80;51.50;;;;;;5052309;28;20309;-57
2022/03/13 12:30:24;;;;;;;;;;;15.60;52.40;;;;;;5055066;28;19928;-57
2022/03/13 12:32:56;;;;;;;;;;;15.50;53.30;;;;;;5054132;28;20381;-57
2022/03/13 12:35:21;;;;;;;;;;;15.60;53.60;;;;;;5052049;28;19935;-58
2022/03/13 12:37:54;;;;;;;;;;;15.60;54.00;;;;;;5048958;28;19920;-58
2022/03/13 12:40:23;;;;;;;;;;;15.70;53.80;;;;;;5053579;28;19921;-56
2022/03/13 12:42:53;;;;;;;;;;;15.80;52.00;;;;;;5053744;28;19942;-58
2022/03/13 12:45:18;;;;;;;;;;;15.90;52.10;;;;;;5054428;28;19928;-57
2022/03/13 12:47:47;;;;;;;;;;;15.90;51.70;;;;;;5048090;28;19928;-58
2022/03/13 12:50:13;;;;;;;;;;;16.00;52.80;;;;;;5053668;28;19979;-57
2022/03/13 12:52:40;;;;;;;;;;;16.00;52.60;;;;;;5050904;28;20411;-57
2022/03/13 12:55:06;;;;;;;;;;;16.00;52.90;;;;;;5051607;28;19947;-57
2022/03/13 12:57:33;;;;;;;;;;;16.10;52.70;;;;;;5049369;28;19927;-56
2022/03/13 12:59:58;;;;;;;;;;;16.20;52.80;;;;;;5049920;28;20298;-58
2022/03/13 13:02:31;;;;;;;;;;;16.20;53.00;;;;;;5050651;28;19924;-58
2022/03/13 13:05:04;;;;;;;;;;;16.10;53.50;;;;;;5047275;28;19924;-58
2022/03/13 13:07:33;;;;;;;;;;;16.20;53.60;;;;;;5051202;28;19920;-58
2022/03/13 13:09:59;;;;;;;;;;;16.40;54.10;;;;;;5053913;28;19921;-57
2022/03/13 13:12:30;;;;;;;;;;;16.30;54.40;;;;;;5053601;28;19921;-58
2022/03/13 13:14:56;;;;;;;;;;;16.40;54.10;;;;;;5053888;28;20370;-58
2022/03/13 13:17:24;;;;;;;;;;;16.50;54.20;;;;;;5053500;28;19931;-58
2022/03/13 13:19:50;;;;;;;;;;;16.40;54.20;;;;;;5054127;28;19928;-58
2022/03/13 13:22:23;;;;;;;;;;;16.40;54.30;;;;;;5050933;28;19928;-58
2022/03/13 13:24:48;;;;;;;;;;;16.40;55.00;;;;;;5053205;28;19921;-58
2022/03/13 13:27:27;;;;;;;;;;;16.60;55.70;;;;;;5053585;28;19920;-58
2022/03/13 13:29:53;;;;;;;;;;;16.70;55.10;;;;;;5053643;28;19921;-58
2022/03/13 13:32:23;;;;;;;;;;;16.70;54.70;;;;;;5053897;28;19943;-58
2022/03/13 13:35:00;;;;;;;;;;;16.70;55.00;;;;;;5054041;28;20007;-57
2022/03/13 13:37:26;;;;;;;;;;;16.70;55.30;;;;;;5035746;28;19921;-58
2022/03/13 13:40:11;;;;;;;;;;;16.80;55.70;;;;;;5050303;28;19921;-58
2022/03/13 13:42:37;;;;;;;;;;;16.80;55.40;;;;;;5051435;28;19982;-58
2022/03/13 13:45:03;;;;;;;;;;;16.90;55.60;;;;;;5053297;28;20007;-59
2022/03/13 13:47:28;;;;;;;;;;;17.00;54.50;;;;;;5052756;28;19920;-58
2022/03/13 13:49:54;;;;;;;;;;;16.80;54.20;;;;;;5034727;28;19921;-59
2022/03/13 13:52:27;;;;;;;;;;;17.10;55.50;;;;;;5052247;28;20023;-58
2022/03/13 13:54:53;;;;;;;;;;;17.00;53.80;;;;;;5051756;28;20027;-58
2022/03/13 13:57:21;;;;;;;;;;;16.90;54.00;;;;;;5048064;28;19996;-57
2022/03/13 13:59:47;;;;;;;;;;;16.90;54.70;;;;;;5060061;28;20314;-59
2022/03/13 14:02:15;;;;;;;;;;;17.00;54.70;;;;;;5056515;28;19950;-58
2022/03/13 14:04:42;;;;;;;;;;;17.10;55.00;;;;;;5054504;28;20370;-58
2022/03/13 14:07:09;;;;;;;;;;;17.10;54.80;;;;;;5051941;28;19921;-58
2022/03/13 14:09:35;;;;;;;;;;;17.20;55.70;;;;;;5051264;28;19974;-58
2022/03/13 14:12:01;;;;;;;;;;;17.30;55.60;;;;;;5052054;28;20000;-56
2022/03/13 14:14:26;;;;;;;;;;;17.30;55.70;;;;;;5050553;28;20074;-58
2022/03/13 14:16:52;;;;;;;;;;;17.30;54.30;;;;;;5052069;28;19920;-58
2022/03/13 14:19:17;;;;;;;;;;;17.20;54.80;;;;;;5051874;28;19920;-58
2022/03/13 14:21:43;;;;;;;;;;;17.40;55.50;;;;;;5052124;28;19921;-58
2022/03/13 14:24:09;;;;;;;;;;;17.30;54.20;;;;;;5050476;28;19970;-58
2022/03/13 14:26:35;;;;;;;;;;;17.30;54.30;;;;;;5051996;28;20323;-58